Time;durP1;ratioP1;P1;durP2;ratioP2;P2;SDS_P1;SDS_P2;PMS_P1;PMS_P2;Temp;Humidity;BMP_temperature;BMP_pressure;BME280_temperature;BME280_humidity;BME280_pressure;Samples;Min_cycle;Max_cycle;Signal;HPM_P1;HPM_P2
2022/05/30 00:00:25;;;;;;;2.70;2.20;;;;;;;;;;5040933;28;20613;-72
2022/05/30 00:02:51;;;;;;;2.10;1.90;;;;;;;;;;5035031;28;20199;-72
2022/05/30 00:05:18;;;;;;;2.00;1.80;;;;;;;;;;5043652;28;20178;-72
2022/05/30 00:07:44;;;;;;;2.43;1.87;;;;;;;;;;5042780;28;20185;-72
2022/05/30 00:10:11;;;;;;;2.47;1.90;;;;;;;;;;5039639;28;20182;-72
2022/05/30 00:12:38;;;;;;;1.70;1.60;;;;;;;;;;5047881;28;20233;-72
2022/05/30 00:15:05;;;;;;;2.40;2.00;;;;;;;;;;5048758;28;20209;-72
2022/05/30 00:17:31;;;;;;;3.33;2.30;;;;;;;;;;5046395;28;20182;-71
2022/05/30 00:19:57;;;;;;;3.20;2.30;;;;;;;;;;5039836;28;20178;-71
2022/05/30 00:22:23;;;;;;;2.63;2.43;;;;;;;;;;5044479;28;20719;-72
2022/05/30 00:24:50;;;;;;;3.30;2.47;;;;;;;;;;5045060;28;20291;-72
2022/05/30 00:27:18;;;;;;;2.70;2.50;;;;;;;;;;5049906;28;20192;-72
2022/05/30 00:29:44;;;;;;;2.67;2.40;;;;;;;;;;5047674;28;20236;-72
2022/05/30 00:32:11;;;;;;;2.97;2.67;;;;;;;;;;5048987;28;20713;-71
2022/05/30 00:34:38;;;;;;;3.20;2.67;;;;;;;;;;5042799;28;20241;-72
2022/05/30 00:37:04;;;;;;;3.00;2.53;;;;;;;;;;5035629;28;20185;-72
2022/05/30 00:39:30;;;;;;;2.70;2.50;;;;;;;;;;5036852;28;20172;-72
2022/05/30 00:42:14;;;;;;;2.40;2.20;;;;;;;;;;5051737;28;20174;-72
2022/05/30 00:44:41;;;;;;;2.40;2.20;;;;;;;;;;5035967;28;20190;-72
2022/05/30 00:47:07;;;;;;;2.40;2.10;;;;;;;;;;5045278;28;20261;-72
2022/05/30 00:49:51;;;;;;;2.60;2.27;;;;;;;;;;5041171;28;20214;-72
2022/05/30 00:52:21;;;;;;;2.67;2.37;;;;;;;;;;5041172;28;20230;-72
2022/05/30 00:54:53;;;;;;;2.30;1.97;;;;;;;;;;5048965;28;20216;-72
2022/05/30 00:57:21;;;;;;;2.17;1.97;;;;;;;;;;5053267;28;20182;-72
2022/05/30 00:59:50;;;;;;;2.60;2.17;;;;;;;;;;5047158;28;20217;-72
2022/05/30 01:02:17;;;;;;;2.90;2.60;;;;;;;;;;5049878;28;20213;-71
2022/05/30 01:07:32;;;;;;;3.83;2.70;;;;;;;;;;5052377;28;20692;-71
2022/05/30 01:09:59;;;;;;;2.87;2.57;;;;;;;;;;5046920;28;20182;-71
2022/05/30 01:12:37;;;;;;;3.90;2.90;;;;;;;;;;5042859;28;20209;-71
2022/05/30 01:15:04;;;;;;;3.30;3.00;;;;;;;;;;5050500;28;20716;-72
2022/05/30 01:17:30;;;;;;;3.20;2.90;;;;;;;;;;5046770;28;20179;-71
2022/05/30 01:19:58;;;;;;;3.60;3.03;;;;;;;;;;5046589;28;20182;-72
2022/05/30 01:23:03;;;;;;;3.40;3.10;;;;;;;;;;5046469;28;20204;-72
2022/05/30 01:25:49;;;;;;;3.40;2.70;;;;;;;;;;5008522;28;20481;-72
2022/05/30 01:28:23;;;;;;;3.00;2.70;;;;;;;;;;5003485;28;20489;-72
2022/05/30 01:30:52;;;;;;;3.47;2.93;;;;;;;;;;5031318;28;20669;-71
2022/05/30 01:33:18;;;;;;;5.20;3.00;;;;;;;;;;5028147;28;20597;-71
2022/05/30 01:35:44;;;;;;;4.00;3.60;;;;;;;;;;5045371;28;20190;-72
2022/05/30 01:38:14;;;;;;;3.83;3.20;;;;;;;;;;5045099;28;20201;-72
2022/05/30 01:40:42;;;;;;;3.37;3.00;;;;;;;;;;5042608;28;20541;-72
2022/05/30 01:43:08;;;;;;;4.63;3.17;;;;;;;;;;5040065;28;20248;-71
2022/05/30 01:45:36;;;;;;;3.30;2.87;;;;;;;;;;5047039;28;20557;-71
2022/05/30 01:48:03;;;;;;;3.10;2.80;;;;;;;;;;5033135;28;20953;-72
2022/05/30 01:50:29;;;;;;;2.90;2.47;;;;;;;;;;5048857;28;20186;-72
2022/05/30 01:53:02;;;;;;;2.43;2.23;;;;;;;;;;5050545;28;20209;-71
2022/05/30 01:55:51;;;;;;;2.43;2.20;;;;;;;;;;5042477;28;20665;-72
2022/05/30 01:58:17;;;;;;;2.17;1.97;;;;;;;;;;5041102;28;20549;-71
2022/05/30 02:01:20;;;;;;;2.93;1.73;;;;;;;;;;5042125;28;20276;-71
2022/05/30 02:03:48;;;;;;;1.60;1.50;;;;;;;;;;5039746;28;20202;-71
2022/05/30 02:06:14;;;;;;;4.20;1.87;;;;;;;;;;5040015;28;20186;-71
2022/05/30 02:08:40;;;;;;;2.07;1.87;;;;;;;;;;5035410;28;20244;-71
2022/05/30 02:11:08;;;;;;;2.20;2.00;;;;;;;;;;5038772;28;20181;-71
2022/05/30 02:13:35;;;;;;;2.97;2.03;;;;;;;;;;5043050;28;20218;-72
2022/05/30 02:18:59;;;;;;;2.20;1.93;;;;;;;;;;5048790;28;20186;-72
2022/05/30 02:21:26;;;;;;;2.80;2.60;;;;;;;;;;5043848;28;20263;-72
2022/05/30 02:23:52;;;;;;;2.93;2.27;;;;;;;;;;5046285;28;20716;-72
2022/05/30 02:26:18;;;;;;;3.23;2.73;;;;;;;;;;5041767;28;20179;-71
2022/05/30 02:28:47;;;;;;;2.90;2.60;;;;;;;;;;5042332;28;20713;-71
2022/05/30 02:31:13;;;;;;;3.23;2.60;;;;;;;;;;5040236;28;20182;-72
2022/05/30 02:36:42;;;;;;;3.13;2.50;;;;;;;;;;5031665;28;20290;-71
2022/05/30 02:39:14;;;;;;;3.00;2.70;;;;;;;;;;5022150;28;20221;-71
2022/05/30 02:41:47;;;;;;;3.33;3.03;;;;;;;;;;5043076;28;20214;-72
2022/05/30 02:44:19;;;;;;;3.40;2.90;;;;;;;;;;5036309;28;20186;-72
2022/05/30 02:46:49;;;;;;;3.23;2.93;;;;;;;;;;5029670;28;20186;-72
2022/05/30 02:49:15;;;;;;;3.00;2.70;;;;;;;;;;5047399;28;20182;-71
2022/05/30 02:51:42;;;;;;;4.47;3.60;;;;;;;;;;5040283;28;20197;-71
2022/05/30 02:54:11;;;;;;;4.83;3.43;;;;;;;;;;5042717;28;20210;-71
2022/05/30 02:56:57;;;;;;;3.30;3.00;;;;;;;;;;5041072;28;20196;-71
2022/05/30 02:59:23;;;;;;;3.67;3.30;;;;;;;;;;5043963;28;20297;-71
2022/05/30 03:01:58;;;;;;;4.43;3.20;;;;;;;;;;5041094;28;20177;-71
2022/05/30 03:04:24;;;;;;;3.57;2.80;;;;;;;;;;5043600;28;20186;-71
2022/05/30 03:06:53;;;;;;;3.77;3.00;;;;;;;;;;5043199;28;20276;-71
2022/05/30 03:09:19;;;;;;;3.00;2.70;;;;;;;;;;5028416;28;20191;-72
2022/05/30 03:12:14;;;;;;;3.00;2.70;;;;;;;;;;5040000;28;20312;-72
2022/05/30 03:14:40;;;;;;;2.67;2.40;;;;;;;;;;5025502;28;20237;-72
2022/05/30 03:17:08;;;;;;;3.10;2.30;;;;;;;;;;5043271;28;20182;-72
2022/05/30 03:19:36;;;;;;;2.60;2.40;;;;;;;;;;5040478;28;20266;-71
2022/05/30 03:22:03;;;;;;;3.93;3.10;;;;;;;;;;5037485;28;20280;-71
2022/05/30 03:24:33;;;;;;;3.50;3.10;;;;;;;;;;5043644;28;20243;-71
2022/05/30 03:26:59;;;;;;;3.40;3.10;;;;;;;;;;5044765;28;20657;-71
2022/05/30 03:29:25;;;;;;;3.43;2.83;;;;;;;;;;5027960;28;20190;-72
2022/05/30 03:31:53;;;;;;;3.30;3.00;;;;;;;;;;5044202;28;20746;-72
2022/05/30 03:34:20;;;;;;;4.90;2.93;;;;;;;;;;5035540;28;20198;-71
2022/05/30 03:36:46;;;;;;;3.37;3.03;;;;;;;;;;5044170;28;20193;-71
2022/05/30 03:39:24;;;;;;;3.00;2.67;;;;;;;;;;5046281;28;20193;-71
2022/05/30 03:42:13;;;;;;;3.53;3.17;;;;;;;;;;5036253;28;20693;-71
2022/05/30 03:45:00;;;;;;;3.27;2.97;;;;;;;;;;5033051;28;20190;-71
2022/05/30 03:47:27;;;;;;;3.37;2.70;;;;;;;;;;5033881;28;20270;-72
2022/05/30 03:49:59;;;;;;;3.40;3.10;;;;;;;;;;5026853;28;20191;-71
2022/05/30 03:52:26;;;;;;;4.60;4.10;;;;;;;;;;5036701;28;20205;-72
2022/05/30 03:54:52;;;;;;;4.00;3.60;;;;;;;;;;5041423;28;20313;-71
2022/05/30 03:57:20;;;;;;;3.93;3.60;;;;;;;;;;5039830;28;20192;-71
2022/05/30 03:59:47;;;;;;;3.70;3.10;;;;;;;;;;5023662;28;20244;-72
2022/05/30 04:02:14;;;;;;;3.50;3.20;;;;;;;;;;5040484;28;20220;-72
2022/05/30 04:04:41;;;;;;;4.30;3.17;;;;;;;;;;5047176;28;20243;-71
2022/05/30 04:07:07;;;;;;;3.10;2.80;;;;;;;;;;5040951;28;20189;-71
2022/05/30 04:09:54;;;;;;;3.30;2.90;;;;;;;;;;5047309;28;20192;-72
2022/05/30 04:13:07;;;;;;;3.47;3.10;;;20.90;44.40;;;;;;5038117;28;20253;-72
2022/05/30 04:15:51;;;;;;;3.73;3.20;;;9.70;99.90;;;;;;5039297;28;20182;-73
2022/05/30 04:18:17;;;;;;;3.40;3.10;;;9.30;99.90;;;;;;5044079;28;20178;-71
2022/05/30 04:20:46;;;;;;;3.27;2.97;;;9.30;99.90;;;;;;5038735;28;20184;-71
2022/05/30 04:23:13;;;;;;;3.43;3.13;;;9.30;99.90;;;;;;5041450;28;20259;-71
2022/05/30 04:25:46;;;;;;;3.20;2.90;;;9.40;99.90;;;;;;5043938;28;20192;-71
2022/05/30 04:28:13;;;;;;;4.33;3.07;;;9.40;99.90;;;;;;5049088;28;20657;-71
2022/05/30 04:30:43;;;;;;;4.00;3.60;;;9.40;99.90;;;;;;5047034;28;20181;-71
2022/05/30 04:33:10;;;;;;;3.37;3.07;;;9.30;99.90;;;;;;5041392;28;20199;-74
2022/05/30 04:35:35;;;;;;;4.13;3.43;;;9.30;99.90;;;;;;5042334;28;20260;-72
2022/05/30 04:38:01;;;;;;;3.50;3.20;;;9.40;99.90;;;;;;5041608;28;20170;-72
2022/05/30 04:40:36;;;;;;;3.80;3.13;;;9.40;99.90;;;;;;5038648;28;20181;-72
2022/05/30 04:43:24;;;;;;;4.10;3.70;;;9.40;99.90;;;;;;5042193;28;20218;-72
2022/05/30 04:46:17;;;;;;;7.17;3.57;;;9.40;99.90;;;;;;5036033;28;20228;-73
2022/05/30 04:48:52;;;;;;;3.90;3.50;;;9.50;99.90;;;;;;5036594;28;20280;-72
2022/05/30 04:51:18;;;;;;;3.70;3.40;;;9.60;99.90;;;;;;5043916;28;20204;-71
2022/05/30 04:53:44;;;;;;;4.00;3.60;;;9.50;99.90;;;;;;5048615;28;20237;-70
2022/05/30 04:56:10;;;;;;;3.83;3.47;;;9.50;99.90;;;;;;5045874;28;20182;-73
2022/05/30 04:58:59;;;;;;;4.13;3.80;;;9.60;99.90;;;;;;5046346;28;20217;-71
2022/05/30 05:01:27;;;;;;;4.30;3.90;;;9.60;99.90;;;;;;5045464;28;20775;-71
2022/05/30 05:03:52;;;;;;;4.17;3.77;;;9.70;99.90;;;;;;5040066;28;20742;-71
2022/05/30 05:06:21;;;;;;;4.17;3.50;;;9.70;99.90;;;;;;5042245;28;20192;-71
2022/05/30 05:08:57;;;;;;;4.73;3.50;;;9.60;99.90;;;;;;5036320;28;20198;-71
2022/05/30 05:11:49;;;;;;;5.10;3.77;;;9.70;99.90;;;;;;5037072;28;20185;-76
2022/05/30 05:14:18;;;;;;;8.60;3.80;;;9.80;99.90;;;;;;5045365;28;20876;-72
2022/05/30 05:17:05;;;;;;;6.47;3.77;;;9.80;99.90;;;;;;5047311;28;20215;-73
2022/05/30 05:19:33;;;;;;;3.93;3.50;;;9.80;99.90;;;;;;5048346;28;20209;-72
2022/05/30 05:21:59;;;;;;;4.73;3.90;;;9.90;99.90;;;;;;5048920;28;20205;-72
2022/05/30 05:24:26;;;;;;;4.70;3.90;;;9.90;99.90;;;;;;5047523;28;20673;-73
2022/05/30 05:27:18;;;;;;;7.30;3.67;;;10.10;99.90;;;;;;5048368;28;20190;-73
2022/05/30 05:29:47;;;;;;;7.00;3.80;;;10.20;99.90;;;;;;5028911;28;20190;-72
2022/05/30 05:32:15;;;;;;;4.03;3.63;;;10.20;99.90;;;;;;5044250;28;20201;-72
2022/05/30 05:34:41;;;;;;;5.33;3.40;;;10.30;99.90;;;;;;5045686;28;20717;-73
2022/05/30 05:37:07;;;;;;;7.17;4.20;;;10.40;99.90;;;;;;5046401;28;20174;-73
2022/05/30 05:40:11;;;;;;;4.37;3.60;;;10.50;99.90;;;;;;5047411;28;20186;-73
2022/05/30 05:42:39;;;;;;;3.93;3.50;;;10.60;99.90;;;;;;5049523;28;20217;-72
2022/05/30 05:45:07;;;;;;;4.97;3.87;;;10.60;99.90;;;;;;5047069;28;20182;-72
2022/05/30 05:47:34;;;;;;;5.40;4.10;;;10.70;99.90;;;;;;5046233;28;20185;-73
2022/05/30 05:50:01;;;;;;;5.77;3.60;;;10.80;99.90;;;;;;5044501;28;20186;-73
2022/05/30 05:52:28;;;;;;;4.50;3.77;;;10.90;99.90;;;;;;5043604;28;20573;-73
2022/05/30 05:54:57;;;;;;;5.20;3.93;;;11.00;99.90;;;;;;5045284;28;20296;-73
2022/05/30 05:57:27;;;;;;;4.87;4.00;;;11.00;99.90;;;;;;5045748;28;20184;-73
2022/05/30 05:59:53;;;;;;;4.50;3.93;;;11.10;99.90;;;;;;5043583;28;20273;-73
2022/05/30 06:02:19;;;;;;;3.80;3.43;;;11.10;99.90;;;;;;5043881;28;20292;-73
2022/05/30 06:04:46;;;;;;;4.63;3.80;;;11.10;99.90;;;;;;5042556;28;20236;-73
2022/05/30 06:07:33;;;;;;;4.33;3.67;;;11.20;99.90;;;;;;5045421;28;20254;-73
2022/05/30 06:10:15;;;;;;;5.23;4.13;;;11.30;99.90;;;;;;5045135;28;20185;-73
2022/05/30 06:12:54;;;;;;;5.40;3.93;;;11.30;99.90;;;;;;5045423;28;20602;-73
2022/05/30 06:15:20;;;;;;;4.80;4.10;;;11.40;99.90;;;;;;5044998;28;20268;-73
2022/05/30 06:18:03;;;;;;;4.53;3.70;;;11.50;99.90;;;;;;5046134;28;20197;-73
2022/05/30 06:20:29;;;;;;;5.10;4.30;;;11.70;99.90;;;;;;5033863;28;20178;-72
2022/05/30 06:22:55;;;;;;;4.77;4.17;;;11.70;99.90;;;;;;5026672;28;20249;-73
2022/05/30 06:25:46;;;;;;;4.47;3.80;;;11.80;99.90;;;;;;5044008;28;20670;-73
2022/05/30 06:28:37;;;;;;;4.67;3.77;;;11.80;99.90;;;;;;5044592;28;20192;-73
2022/05/30 06:31:10;;;;;;;4.50;4.10;;;11.90;99.90;;;;;;5040714;28;20649;-73
2022/05/30 06:33:37;;;;;;;5.50;4.13;;;12.00;99.90;;;;;;5038247;28;20259;-73
2022/05/30 06:36:08;;;;;;;4.73;3.93;;;12.10;99.90;;;;;;5053870;28;20174;-73
2022/05/30 06:38:36;;;;;;;4.60;4.03;;;12.20;99.90;;;;;;5021748;28;20210;-73
2022/05/30 06:41:31;;;;;;;5.40;3.73;;;12.30;99.90;;;;;;5025195;28;20185;-73
2022/05/30 06:44:04;;;;;;;4.00;3.60;;;12.40;99.90;;;;;;5050369;28;20236;-73
2022/05/30 06:46:49;;;;;;;5.17;4.00;;;12.50;99.90;;;;;;5044010;28;20193;-73
2022/05/30 06:49:34;;;;;;;4.20;3.80;;;12.70;99.90;;;;;;5035368;28;20189;-73
2022/05/30 06:52:00;;;;;;;5.07;4.10;;;12.70;99.90;;;;;;5046264;28;20177;-73
2022/05/30 06:54:26;;;;;;;4.90;4.40;;;12.70;99.90;;;;;;5043006;28;20213;-73
2022/05/30 06:59:37;;;;;;;5.17;4.10;;;12.90;99.90;;;;;;5045367;28;20180;-73
2022/05/30 07:02:07;;;;;;;6.87;4.20;;;13.00;99.90;;;;;;5046244;28;20166;-73
2022/05/30 07:04:51;;;;;;;5.90;4.23;;;13.00;99.90;;;;;;5041715;28;20189;-73
2022/05/30 07:07:38;;;;;;;4.70;4.10;;;13.10;99.90;;;;;;5043502;28;20712;-73
2022/05/30 07:10:25;;;;;;;7.07;3.57;;;13.20;99.90;;;;;;5041978;28;20273;-73
2022/05/30 07:12:58;;;;;;;4.33;3.50;;;13.20;99.90;;;;;;5042651;28;20243;-73
2022/05/30 07:15:26;;;;;;;4.50;3.97;;;13.30;98.60;;;;;;5038526;28;20221;-73
2022/05/30 07:17:53;;;;;;;4.33;3.60;;;13.30;99.10;;;;;;5041696;28;20185;-73
2022/05/30 07:33:04;;;;;;;4.33;2.60;;;;;;;;;;5101900;27;20646;-74
2022/05/30 07:35:49;;;;;;;4.93;2.90;;;;;;;;;;5090157;28;20202;-75
2022/05/30 07:38:34;;;;;;;3.97;2.50;;;;;;;;;;5085848;28;20258;-74
2022/05/30 07:41:28;;;;;;;2.23;2.03;;;;;;;;;;5092391;28;20306;-74
2022/05/30 07:44:07;;;;;;;2.20;2.00;;;;;;;;;;5087446;28;20281;-74
2022/05/30 07:46:53;;;;;;;2.43;1.97;;;;;;;;;;5088674;28;20179;-75
2022/05/30 07:49:30;;;;;;;2.40;1.93;;;;;;;;;;5083509;28;20184;-74
2022/05/30 07:52:18;;;;;;;2.20;2.00;;;;;;;;;;5088467;28;20193;-74
2022/05/30 07:55:09;;;;;;;2.00;1.80;;;;;;;;;;5084977;28;20184;-72
2022/05/30 07:57:52;;;;;;;3.00;1.90;;;;;;;;;;5082153;28;20661;-72
2022/05/30 08:00:21;;;;;;;3.40;2.00;;;;;;;;;;5088755;28;20184;-72
2022/05/30 08:02:51;;;;;;;2.63;1.90;;;;;;;;;;5084316;28;20204;-72
2022/05/30 08:05:18;;;;;;;2.90;2.00;;;;;;;;;;5083046;28;20259;-72
2022/05/30 08:08:17;;;;;;;1.70;1.50;;;;;;;;;;5078339;28;20200;-72
2022/05/30 08:10:49;;;;;;;1.73;1.43;;;;;;;;;;5072580;28;20189;-72
2022/05/30 08:13:16;;;;;;;2.27;1.60;;;;;;;;;;5073121;28;20295;-72
2022/05/30 08:15:46;;;;;;;4.73;1.97;;;;;;;;;;5073261;28;20642;-72
2022/05/30 08:18:27;;;;;;;2.03;1.60;;;;;;;;;;5085422;28;20272;-72
2022/05/30 08:20:57;;;;;;;2.73;1.80;;;;;;;;;;5073588;28;20212;-72
2022/05/30 08:23:24;;;;;;;1.60;1.50;;;;;;;;;;5093331;28;20204;-72
2022/05/30 08:25:52;;;;;;;2.40;1.77;;;;;;;;;;5070696;28;20280;-72
2022/05/30 08:28:21;;;;;;;2.47;1.90;;;;;;;;;;5091467;28;20192;-72
2022/05/30 08:30:50;;;;;;;1.83;1.60;;;;;;;;;;5075577;28;20185;-72
2022/05/30 08:33:35;;;;;;;2.13;1.60;;;;;;;;;;5081435;28;20205;-72
2022/05/30 08:36:23;;;;;;;1.90;1.47;;;;;;;;;;5078553;28;20241;-72
2022/05/30 08:41:46;;;;;;;3.50;1.60;;;;;;;;;;5080014;28;20327;-72
2022/05/30 08:41:48;;;;;;;1.90;1.80;;;;;;;;;;5061313;28;20232;-72
2022/05/30 08:44:35;;;;;;;2.20;1.73;;;;;;;;;;5078620;28;20205;-78
2022/05/30 08:47:29;;;;;;;2.30;1.60;;;;;;;;;;5062830;28;20180;-76
2022/05/30 08:49:59;;;;;;;3.17;1.57;;;;;;;;;;5079246;28;20611;-72
2022/05/30 08:52:36;;;;;;;2.60;1.87;;;;;;;;;;5077638;28;20212;-75
2022/05/30 08:55:12;;;;;;;1.60;1.40;;;;;;;;;;5076557;28;20216;-72
2022/05/30 08:57:45;;;;;;;1.83;1.40;;;;;;;;;;5058754;28;20191;-73
2022/05/30 09:00:25;;;;;;;1.90;1.60;;;;;;;;;;5060326;28;20181;-73
2022/05/30 09:03:15;;;;;;;1.80;1.40;;;;;;;;;;5076300;28;20218;-73
2022/05/30 09:05:43;;;;;;;3.03;1.47;;;;;;;;;;5076880;28;20183;-74
2022/05/30 09:08:13;;;;;;;2.43;1.50;;;;;;;;;;5061380;28;20181;-74
2022/05/30 09:10:55;;;;;;;3.43;1.50;;;;;;;;;;5077182;28;20680;-74
2022/05/30 09:13:23;;;;;;;2.03;1.40;;;;;;;;;;5077854;28;20648;-74
2022/05/30 09:16:19;;;;;;;2.27;1.30;;;;;;;;;;5077974;28;20176;-75
2022/05/30 09:18:50;;;;;;;2.57;1.60;;;;;;;;;;5076631;28;20564;-72
2022/05/30 09:21:19;;;;;;;2.30;1.40;;;;;;;;;;5079260;28;20262;-72
2022/05/30 09:23:48;;;;;;;1.87;1.50;;;;;;;;;;5077263;28;20189;-72
2022/05/30 09:26:17;;;;;;;3.27;1.50;;;;;;;;;;5077421;28;20181;-72
2022/05/30 09:29:09;;;;;;;1.90;1.50;;;;;;;;;;5078249;28;20187;-72
2022/05/30 09:31:39;;;;;;;1.77;1.40;;;;;;;;;;5079222;28;20708;-72
2022/05/30 09:34:35;;;;;;;1.97;1.50;;;;;;;;;;5075401;28;20208;-72
2022/05/30 09:37:26;;;;;;;1.97;1.40;;;;;;;;;;5077533;28;20260;-72
2022/05/30 09:40:01;;;;;;;2.10;1.50;;;;;;;;;;5055209;28;20825;-72
2022/05/30 09:42:29;;;;;;;2.23;1.47;;;;;;;;;;5074387;28;20637;-72
2022/05/30 09:44:59;;;;;;;1.23;1.10;;;;;;;;;;5075428;28;20613;-72
2022/05/30 09:48:12;;;;;;;2.63;1.50;;;;;;;;;;5077062;28;20180;-72
2022/05/30 09:50:57;;;;;;;2.00;1.50;;;;;;;;;;5072306;28;20184;-72
2022/05/30 09:53:41;;;;;;;2.40;1.40;;;;;;;;;;5056806;28;20201;-72
2022/05/30 09:56:10;;;;;;;1.53;1.30;;;;;;;;;;5074730;28;20961;-72
2022/05/30 09:58:50;;;;;;;3.47;1.40;;;;;;;;;;5075373;28;20258;-72
2022/05/30 10:01:30;;;;;;;1.90;1.40;;;;;;;;;;5059775;28;20205;-72
2022/05/30 10:04:13;;;;;;;2.37;1.27;;;;;;;;;;5074999;28;20200;-72
2022/05/30 10:07:10;;;;;;;2.60;1.40;;;;;;;;;;5075089;28;20203;-72
2022/05/30 10:10:04;;;;;;;2.23;1.30;;;;;;;;;;5075979;28;20235;-72
2022/05/30 10:12:38;;;;;;;2.00;1.40;;;;;;;;;;5058903;28;20189;-72
2022/05/30 10:15:29;;;;;;;2.10;1.13;;;;;;;;;;5062780;28;20263;-72
2022/05/30 10:18:18;;;;;;;2.03;1.20;;;;;;;;;;5073544;28;20199;-72
2022/05/30 10:20:52;;;;;;;1.13;1.03;;;;;;;;;;5057910;28;20692;-72
2022/05/30 10:30:10;;;;;;;2.37;1.47;;;;;;;;;;5082386;28;20234;-73
2022/05/30 10:32:56;;;;;;;1.73;1.10;;;;;;;;;;5073712;28;20299;-71
2022/05/30 10:35:39;;;;;;;3.83;1.50;;;;;;;;;;5074485;28;20596;-72
2022/05/30 10:38:09;;;;;;;2.20;1.20;;;;;;;;;;5071809;28;20161;-73
2022/05/30 10:40:53;;;;;;;2.03;1.10;;;;;;;;;;5057842;28;20216;-72
2022/05/30 10:43:25;;;;;;;2.33;1.20;;;;;;;;;;5068889;28;20286;-73
2022/05/30 10:45:56;;;;;;;1.80;1.30;;;;;;;;;;5057649;28;20869;-74
2022/05/30 10:48:25;;;;;;;1.47;1.27;;;;;;;;;;5075199;28;20179;-74
2022/05/30 10:50:55;;;;;;;3.00;1.40;;;;;;;;;;5074550;28;20180;-74
2022/05/30 10:53:31;;;;;;;1.83;1.20;;;;;;;;;;5073011;28;20228;-76
2022/05/30 10:56:35;;;;;;;2.27;1.50;;;;;;;;;;5070590;28;20188;-76
2022/05/30 10:59:08;;;;;;;1.33;1.03;;;;;;;;;;5074586;28;20421;-75
2022/05/30 11:01:53;;;;;;;3.67;1.20;;;;;;;;;;5073508;28;20201;-75
2022/05/30 11:04:26;;;;;;;1.40;1.10;;;;;;;;;;5074239;28;20204;-74
2022/05/30 11:06:55;;;;;;;1.33;1.13;;;;;;;;;;5072618;28;20177;-75
2022/05/30 11:09:40;;;;;;;1.63;1.20;;;;;;;;;;5071352;28;20227;-75
2022/05/30 11:12:11;;;;;;;1.23;1.13;;;;;;;;;;5055932;28;20268;-75
2022/05/30 11:14:37;;;;;;;1.47;1.20;;;;;;;;;;5072326;28;20358;-74
2022/05/30 11:17:35;;;;;;;2.07;1.57;;;;;;;;;;5071872;28;20200;-74
2022/05/30 11:20:45;;;;;;;2.20;1.30;;;;;;;;;;5072536;28;20196;-75
2022/05/30 11:23:12;;;;;;;4.10;1.50;;;;;;;;;;5071018;28;20278;-76
2022/05/30 11:25:38;;;;;;;2.10;1.40;;;;;;;;;;5077903;28;20192;-74
2022/05/30 11:28:10;;;;;;;3.30;1.30;;;;;;;;;;5077426;28;20181;-75
2022/05/30 11:30:36;;;;;;;1.60;1.20;;;;;;;;;;5075930;28;20185;-76
2022/05/30 11:33:14;;;;;;;2.50;1.60;;;;;;;;;;5069587;28;20247;-76
2022/05/30 11:36:03;;;;;;;3.87;1.40;;;;;;;;;;5070757;28;20666;-76
2022/05/30 11:38:39;;;;;;;2.87;1.37;;;;;;;;;;5073467;28;21398;-77
2022/05/30 11:41:16;;;;;;;2.60;1.20;;;;;;;;;;5074871;28;20299;-76
2022/05/30 11:43:45;;;;;;;2.73;1.30;;;;;;;;;;5072263;28;20203;-75
2022/05/30 11:46:14;;;;;;;1.93;1.10;;;;;;;;;;5073540;28;20181;-74
2022/05/30 11:48:59;;;;;;;2.03;1.30;;;;;;;;;;5073370;28;20223;-75
2022/05/30 11:52:00;;;;;;;1.30;1.17;;;;;;;;;;5074517;28;20181;-77
2022/05/30 11:54:46;;;;;;;1.87;1.20;;;;;;;;;;5069533;28;20209;-77
2022/05/30 11:57:30;;;;;;;1.93;1.20;;;;;;;;;;5076511;28;20193;-80
2022/05/30 12:00:07;;;;;;;3.30;1.23;;;;;;;;;;5072594;28;20188;-82
2022/05/30 12:02:39;;;;;;;2.57;1.10;;;;;;;;;;5069784;28;20224;-77
2022/05/30 12:05:29;;;;;;;2.47;1.10;;;;;;;;;;5070428;28;20249;-77
2022/05/30 12:08:10;;;;;;;1.70;1.00;;;;;;;;;;5077037;28;20523;-75
2022/05/30 12:10:51;;;;;;;1.73;1.10;;;;;;;;;;5059412;28;20250;-77
2022/05/30 12:13:44;;;;;;;1.27;1.00;;;;;;;;;;5076702;28;20204;-72
2022/05/30 12:16:28;;;;;;;1.53;1.20;;;;;;;;;;5076191;28;20202;-71
2022/05/30 12:24:40;;;;;;;1.80;1.00;;;;;;;;;;5076955;28;20204;-74
2022/05/30 12:27:08;;;;;;;1.40;1.10;;;;;;;;;;5075216;28;20184;-72
2022/05/30 12:29:38;;;;;;;1.77;1.20;;;;;;;;;;5054942;28;20189;-73
2022/05/30 12:32:24;;;;;;;2.10;1.13;;;;;;;;;;5071845;28;20265;-72
2022/05/30 12:37:48;;;;;;;1.30;1.03;;;;;;;;;;5076222;28;20267;-73
2022/05/30 12:40:30;;;;;;;2.00;1.10;;;;;;;;;;5075738;28;20208;-73
2022/05/30 12:42:57;;;;;;;1.10;1.00;;;;;;;;;;5078631;28;20213;-73
2022/05/30 12:45:36;;;;;;;1.33;1.07;;;;;;;;;;5076937;28;20559;-73
2022/05/30 12:48:10;;;;;;;3.23;1.00;;;;;;;;;;5080344;28;20216;-73
2022/05/30 12:50:41;;;;;;;1.53;1.13;;;;;;;;;;5079777;28;20180;-72
2022/05/30 12:53:07;;;;;;;3.33;1.40;;;;;;;;;;5080013;28;20230;-73
2022/05/30 12:55:41;;;;;;;2.37;1.20;;;;;;;;;;5080177;28;20183;-73
2022/05/30 12:58:12;;;;;;;2.97;1.40;;;;;;;;;;5079611;28;20164;-73
2022/05/30 13:00:42;;;;;;;1.30;0.90;;;;;;;;;;5079655;28;20187;-73
2022/05/30 13:03:23;;;;;;;4.17;1.10;;;;;;;;;;5079968;28;20200;-73
2022/05/30 13:06:27;;;;;;;1.30;0.90;;;;;;;;;;5078049;28;20268;-73
2022/05/30 13:09:35;;;;;;;1.93;1.33;;;;;;;;;;5058816;28;20176;-73
2022/05/30 13:12:11;;;;;;;1.50;1.07;;;;;;;;;;4998006;28;20626;-73
2022/05/30 13:14:39;;;;;;;1.43;1.10;;;;;;;;;;5014384;28;20237;-72
2022/05/30 13:17:14;;;;;;;1.40;1.10;;;;;;;;;;5053775;28;20224;-73
2022/05/30 13:19:45;;;;;;;2.20;1.20;;;;;;;;;;5075606;28;20188;-73
2022/05/30 13:22:12;;;;;;;2.37;1.30;;;;;;;;;;5077203;28;20735;-73
2022/05/30 13:24:39;;;;;;;2.30;1.30;;;;;;;;;;5079131;28;20220;-73
2022/05/30 13:27:06;;;;;;;1.60;1.20;;;;;;;;;;5075965;28;20598;-73
2022/05/30 13:29:39;;;;;;;2.17;1.30;;;;;;;;;;5078702;28;20181;-73
2022/05/30 13:32:06;;;;;;;3.27;1.20;;;;;;;;;;5072397;28;20250;-73
2022/05/30 13:34:33;;;;;;;1.33;1.23;;;;;;;;;;5072412;28;20263;-73
2022/05/30 13:37:01;;;;;;;1.83;1.23;;;;;;;;;;5072201;28;20207;-73
2022/05/30 13:39:27;;;;;;;1.60;1.20;;;;;;;;;;5072892;28;20188;-72
2022/05/30 13:41:56;;;;;;;1.63;1.20;;;;;;;;;;5076678;28;20212;-73
2022/05/30 13:44:23;;;;;;;1.10;1.00;;;;;;;;;;5077944;28;20302;-73
2022/05/30 13:46:51;;;;;;;4.03;1.43;;;;;;;;;;5079607;28;20309;-73
2022/05/30 13:49:39;;;;;;;2.40;1.20;;;;;;;;;;5078364;28;20191;-73
2022/05/30 13:52:08;;;;;;;2.97;1.30;;;;;;;;;;5071330;28;20255;-73
2022/05/30 13:54:34;;;;;;;1.30;1.10;;;;;;;;;;5071680;28;20215;-73
2022/05/30 13:57:01;;;;;;;1.63;1.20;;;;;;;;;;5076515;28;20255;-72
2022/05/30 13:59:32;;;;;;;2.93;1.40;;;;;;;;;;5079199;28;20281;-72
2022/05/30 14:02:03;;;;;;;2.60;1.20;;;;;;;;;;5079069;28;20203;-73
2022/05/30 14:04:33;;;;;;;1.87;1.07;;;;;;;;;;5079260;28;20201;-73
2022/05/30 14:06:59;;;;;;;2.47;1.10;;;;;;;;;;5080275;28;20661;-73
2022/05/30 14:09:26;;;;;;;1.57;1.00;;;;;;;;;;5076095;28;20176;-73
2022/05/30 14:11:58;;;;;;;2.50;1.10;;;;;;;;;;5077759;28;20187;-73
2022/05/30 14:14:33;;;;;;;1.40;1.07;;;;;;;;;;5072618;28;20263;-73
2022/05/30 14:17:00;;;;;;;1.90;1.10;;;;;;;;;;5073700;28;20547;-74
2022/05/30 14:19:42;;;;;;;1.77;1.20;;;;;;;;;;5071924;28;20215;-74
2022/05/30 14:22:13;;;;;;;1.00;0.90;;;;;;;;;;5075402;28;20251;-75
2022/05/30 14:24:45;;;;;;;1.93;1.20;;;;;;;;;;5077240;28;20256;-74
2022/05/30 14:27:19;;;;;;;2.03;1.10;;;;;;;;;;5075519;28;20180;-73
2022/05/30 14:29:46;;;;;;;1.10;0.97;;;;;;;;;;5076617;28;20249;-74
2022/05/30 14:32:18;;;;;;;2.90;1.10;;;;;;;;;;5071740;28;20200;-73
2022/05/30 14:34:56;;;;;;;1.30;1.00;;;;;;;;;;5073560;28;20189;-73
2022/05/30 14:37:27;;;;;;;2.03;1.07;;;;;;;;;;5076362;28;20205;-73
2022/05/30 14:39:54;;;;;;;1.30;1.20;;;;;;;;;;5073927;28;20181;-73
2022/05/30 14:42:21;;;;;;;3.03;1.20;;;;;;;;;;5071586;28;20200;-73
2022/05/30 14:44:56;;;;;;;1.53;1.13;;;;;;;;;;5075845;28;20321;-76
2022/05/30 14:47:30;;;;;;;2.17;1.27;;;;;;;;;;5072740;28;20233;-74
2022/05/30 14:50:01;;;;;;;2.50;1.30;;;;;;;;;;5074373;28;20833;-74
2022/05/30 14:52:40;;;;;;;3.27;1.27;;;;;;;;;;5075284;28;20188;-74
2022/05/30 14:55:29;;;;;;;2.30;1.20;;;;;;;;;;5075412;28;20204;-73
2022/05/30 14:57:56;;;;;;;1.40;1.30;;;;;;;;;;5070950;28;20283;-74
2022/05/30 15:00:31;;;;;;;1.97;1.20;;;;;;;;;;5076315;28;20566;-74
2022/05/30 15:05:43;;;;;;;2.90;1.40;;;;;;;;;;5076926;28;20711;-75
2022/05/30 15:08:09;;;;;;;1.97;1.30;;;;;;;;;;5071167;28;21025;-76
2022/05/30 15:10:35;;;;;;;1.93;1.13;;;;;;;;;;5075547;28;21444;-76
2022/05/30 15:13:02;;;;;;;2.80;1.20;;;;;;;;;;5070786;28;20210;-75
2022/05/30 15:15:28;;;;;;;2.00;1.10;;;;;;;;;;5072773;28;20175;-76
2022/05/30 15:17:54;;;;;;;2.17;1.20;;;;;;;;;;5073751;28;20211;-75
2022/05/30 15:20:20;;;;;;;2.50;1.40;;;;;;;;;;5066323;28;20197;-75
2022/05/30 15:22:47;;;;;;;4.13;1.30;;;;;;;;;;5057599;28;20266;-75
2022/05/30 15:25:13;;;;;;;3.40;1.20;;;;;;;;;;5058574;28;20195;-75
2022/05/30 15:27:40;;;;;;;4.40;1.20;;;;;;;;;;5058186;28;20210;-75
2022/05/30 15:30:06;;;;;;;3.17;1.00;;;;;;;;;;5063828;28;20177;-75
2022/05/30 15:32:33;;;;;;;2.50;1.37;;;;;;;;;;5056236;28;20289;-75
2022/05/30 15:35:00;;;;;;;2.20;1.20;;;;;;;;;;5054326;28;20178;-75
2022/05/30 15:37:27;;;;;;;2.87;1.40;;;;;;;;;;5054987;28;20188;-75